Gouwestroom — PDGR — position and weather

sailwx.info

Track history (hours):
 
Tides and Currents Weather Stations Pressure Air Temp Water Temp Dewpoint Dewpoint Depression Visibility Wind Speed Wind Dir Waves Ship Positions

Gouwestroom

Last reported at 2016-Jul-27 14:32 UTC. Time now 2016-Jul-27 15:23 UTC.
Position N 50°48' W 001°07'.

Length 20 m; draft 2.2 m.

Type: Tug. MMSI: 246166000.

Date/timePositionNaut miles runAvg speedWind from/ knotsBaromVisibWave heightAir tempDewpointWater temp
2016-Jul-27 14:32N 50°48' W 001°07'0 0.0
2016-Jul-27 13:32N 50°48' W 001°07'0 0.0
2016-Jul-27 12:32N 50°48' W 001°07'0 0.0
2016-Jul-27 11:32N 50°48' W 001°07'0 0.0
2016-Jul-27 10:32N 50°48' W 001°07'0 0.0
2016-Jul-27 09:32N 50°48' W 001°07'0 0.0
2016-Jul-27 08:32N 50°48' W 001°07'0 0.0
2016-Jul-27 07:32N 50°48' W 001°07'0 0.0
2016-Jul-27 06:32N 50°48' W 001°07'0 0.0
2016-Jul-27 05:32N 50°48' W 001°07'0 0.0
2016-Jul-27 04:32N 50°48' W 001°07'0 0.0
2016-Jul-27 03:32N 50°48' W 001°07'0 0.0
2016-Jul-27 02:32N 50°48' W 001°07'0 0.0
2016-Jul-27 01:32N 50°48' W 001°07'0 0.0
2016-Jul-27 00:32N 50°48' W 001°07'0 0.0
2016-Jul-26 23:32N 50°48' W 001°07'0 0.0
2016-Jul-26 22:32N 50°48' W 001°07'0 0.0
2016-Jul-26 21:32N 50°48' W 001°07'0 0.0
2016-Jul-26 20:32N 50°48' W 001°07'0 0.0
2016-Jul-26 19:29N 50°48' W 001°07'0 0.0
2016-Jul-26 18:32N 50°48' W 001°07'0 0.0
2016-Jul-26 17:32N 50°48' W 001°07'0 0.0
2016-Jul-26 16:32N 50°48' W 001°07'0 0.0
2016-Jul-26 15:32N 50°48' W 001°07'0 0.0
2016-Jul-26 14:32N 50°48' W 001°07'0 0.0
2016-Jul-26 13:31N 50°48' W 001°07'0 0.0
2016-Jul-26 12:32N 50°48' W 001°07'0 0.0
2016-Jul-26 11:28N 50°48' W 001°07'0 0.0
2016-Jul-26 10:32N 50°48' W 001°07'0 0.0
2016-Jul-26 09:29N 50°48' W 001°07'0 0.0
2016-Jul-26 08:32N 50°48' W 001°07'0 0.0
2016-Jul-26 07:32N 50°48' W 001°07'0 0.0
2016-Jul-26 06:29N 50°48' W 001°07'0 0.0
2016-Jul-26 05:31N 50°48' W 001°07'0 0.0
2016-Jul-26 04:32N 50°48' W 001°07'0 0.0
2016-Jul-26 03:31N 50°48' W 001°07'0 0.0
2016-Jul-26 02:28N 50°48' W 001°07'0 0.0
2016-Jul-26 01:32N 50°48' W 001°07'0 0.0
2016-Jul-26 00:32N 50°48' W 001°07'0 0.0
2016-Jul-25 23:31N 50°48' W 001°07'0 0.0
2016-Jul-25 22:31N 50°48' W 001°07'0 0.0
2016-Jul-25 21:31N 50°48' W 001°07'0 0.0
2016-Jul-25 20:31N 50°48' W 001°07'0 0.0
2016-Jul-25 19:31N 50°48' W 001°07'0 0.0
2016-Jul-25 18:31N 50°48' W 001°07'0 0.0
2016-Jul-25 17:32N 50°48' W 001°07'0 0.0
2016-Jul-25 16:31N 50°48' W 001°07'0 0.0
2016-Jul-25 15:31N 50°48' W 001°07'0 0.0
2016-Jul-25 14:31N 50°48' W 001°07'0 0.0
2016-Jul-25 13:31N 50°48' W 001°07'0 0.0
2016-Jul-25 12:31N 50°48' W 001°07'0 0.0
2016-Jul-25 11:31N 50°48' W 001°07'0 0.0
2016-Jul-25 10:28N 50°48' W 001°07'0 0.0
2016-Jul-25 09:31N 50°48' W 001°07'0 0.0
2016-Jul-25 08:31N 50°48' W 001°07'0 0.0
2016-Jul-25 07:32N 50°48' W 001°07'0 0.0
2016-Jul-25 06:31N 50°48' W 001°07'0 0.0
2016-Jul-25 05:28N 50°48' W 001°07'0 0.0
2016-Jul-25 04:32N 50°48' W 001°07'0 0.0
2016-Jul-25 03:31N 50°48' W 001°07'0 0.0
2016-Jul-25 02:31N 50°48' W 001°07'0 0.0
2016-Jul-25 01:31N 50°48' W 001°07'0 0.0
2016-Jul-25 00:31N 50°48' W 001°07'0 0.0
2016-Jul-24 23:31N 50°48' W 001°07'0 0.0
2016-Jul-24 22:31N 50°48' W 001°07'0 0.0
2016-Jul-24 21:31N 50°48' W 001°07'0 0.0
2016-Jul-24 20:31N 50°48' W 001°07'0 0.0
2016-Jul-24 19:31N 50°48' W 001°07'0 0.0
2016-Jul-24 18:28N 50°48' W 001°07'4 4.0
2016-Jul-24 17:33N 50°45' W 001°05'8 7.9
2016-Jul-24 16:33N 50°40' W 000°55'1110.7
2016-Jul-24 15:32N 50°37' W 000°39'10 9.8
2016-Jul-24 14:33N 50°35' W 000°24'8 8.3
2016-Jul-24 13:33N 50°33' W 000°11'7 7.1
2016-Jul-24 12:33N 50°33' E 000°00'6 6.3
2016-Jul-24 11:33N 50°34' E 000°10'7 6.5
2016-Jul-24 10:27N 50°37' E 000°20'36 8.7
2016-Jul-24 06:20N 50°55' E 001°09'7 8.5
2016-Jul-24 05:32N 50°59' E 001°17'7 7.1
2016-Jul-24 04:32N 51°04' E 001°26'6 5.7
2016-Jul-24 03:33N 51°07' E 001°33'5 4.8
2016-Jul-24 02:33N 51°10' E 001°39'6 5.6
2016-Jul-24 01:33N 51°14' E 001°45'8 7.9
2016-Jul-24 00:33N 51°21' E 001°50'10 9.7
2016-Jul-23 23:33N 51°30' E 001°58'1110.8
2016-Jul-23 22:32N 51°38' E 002°10'1010.3
2016-Jul-23 21:33N 51°46' E 002°21'9 9.4
2016-Jul-23 20:33N 51°52' E 002°31'9 8.4
2016-Jul-23 19:30N 51°57' E 002°43'37 7.3
2016-Jul-23 14:31N 52°03' E 003°42'9 8.9
2016-Jul-23 13:33N 52°01' E 003°55'1010.0
2016-Jul-23 12:33N 51°57' E 004°10'9 9.2
2016-Jul-23 11:33N 51°54' E 004°24'7 7.4
2016-Jul-23 10:33N 51°54' E 004°36'8 8.0
2016-Jul-23 09:33N 51°49' E 004°47'4 3.8
2016-Jul-23 08:33N 51°49' E 004°53'0 0.0
2016-Jul-23 07:30N 51°49' E 004°53'0 0.0
2016-Jul-23 06:33N 51°49' E 004°53'0 0.0
2016-Jul-23 04:33N 51°49' E 004°53'0 0.0
2016-Jul-23 03:30N 51°49' E 004°53'0 0.0
2016-Jul-23 02:27N 51°49' E 004°53'0 0.0
2016-Jul-23 01:33N 51°49' E 004°53'0 0.0
2016-Jul-23 00:33N 51°49' E 004°53'0 0.0
2016-Jul-22 23:27N 51°49' E 004°53'0 0.0
2016-Jul-22 22:33N 51°49' E 004°53'0 0.0
2016-Jul-22 21:33N 51°49' E 004°53'0 0.0
2016-Jul-22 20:33N 51°49' E 004°53'0 0.0
2016-Jul-22 19:15N 51°49' E 004°53'0 0.0
2016-Jul-22 18:33N 51°49' E 004°53'0 0.0
2016-Jul-22 17:33N 51°49' E 004°53'0 0.0
2016-Jul-22 16:06N 51°49' E 004°53'0 0.0
2016-Jul-22 15:33N 51°49' E 004°53'0 0.0
2016-Jul-22 14:24N 51°49' E 004°53'0 0.0
2016-Jul-22 13:33N 51°49' E 004°53'0 0.0
2016-Jul-22 12:27N 51°49' E 004°53'0 0.0
2016-Jul-22 11:33N 51°49' E 004°53'0 0.0
2016-Jul-22 10:30N 51°49' E 004°53'0 0.0
2016-Jul-22 09:27N 51°49' E 004°53'0 0.0
2016-Jul-22 08:30N 51°49' E 004°53'0 0.0
2016-Jul-22 00:33N 51°49' E 004°53'0 0.0
2016-Jul-21 22:21N 51°49' E 004°53'0 0.0
2016-Jul-21 18:27N 51°49' E 004°53'  
Track history (hours):
 
Tides and Currents Weather Stations Pressure Air Temp Water Temp Dewpoint Dewpoint Depression Visibility Wind Speed Wind Dir Waves Ship Positions

Gouwestroom

Last reported at 2016-Jul-27 14:32 UTC. Time now 2016-Jul-27 15:23 UTC.
Position N 50°48' W 001°07'.

Length 20 m; draft 2.2 m.

Type: Tug. MMSI: 246166000.

Date/timePositionNaut miles runAvg speedWind from/ knotsBaromVisibWave heightAir tempDewpointWater temp
2016-Jul-27 14:32N 50°48' W 001°07'0 0.0
2016-Jul-27 13:32N 50°48' W 001°07'0 0.0
2016-Jul-27 12:32N 50°48' W 001°07'0 0.0
2016-Jul-27 11:32N 50°48' W 001°07'0 0.0
2016-Jul-27 10:32N 50°48' W 001°07'0 0.0
2016-Jul-27 09:32N 50°48' W 001°07'0 0.0
2016-Jul-27 08:32N 50°48' W 001°07'0 0.0
2016-Jul-27 07:32N 50°48' W 001°07'0 0.0
2016-Jul-27 06:32N 50°48' W 001°07'0 0.0
2016-Jul-27 05:32N 50°48' W 001°07'0 0.0
2016-Jul-27 04:32N 50°48' W 001°07'0 0.0
2016-Jul-27 03:32N 50°48' W 001°07'0 0.0
2016-Jul-27 02:32N 50°48' W 001°07'0 0.0
2016-Jul-27 01:32N 50°48' W 001°07'0 0.0
2016-Jul-27 00:32N 50°48' W 001°07'0 0.0
2016-Jul-26 23:32N 50°48' W 001°07'0 0.0
2016-Jul-26 22:32N 50°48' W 001°07'0 0.0
2016-Jul-26 21:32N 50°48' W 001°07'0 0.0
2016-Jul-26 20:32N 50°48' W 001°07'0 0.0
2016-Jul-26 19:29N 50°48' W 001°07'0 0.0
2016-Jul-26 18:32N 50°48' W 001°07'0 0.0
2016-Jul-26 17:32N 50°48' W 001°07'0 0.0
2016-Jul-26 16:32N 50°48' W 001°07'0 0.0
2016-Jul-26 15:32N 50°48' W 001°07'0 0.0
2016-Jul-26 14:32N 50°48' W 001°07'0 0.0
2016-Jul-26 13:31N 50°48' W 001°07'0 0.0
2016-Jul-26 12:32N 50°48' W 001°07'0 0.0
2016-Jul-26 11:28N 50°48' W 001°07'0 0.0
2016-Jul-26 10:32N 50°48' W 001°07'0 0.0
2016-Jul-26 09:29N 50°48' W 001°07'0 0.0
2016-Jul-26 08:32N 50°48' W 001°07'0 0.0
2016-Jul-26 07:32N 50°48' W 001°07'0 0.0
2016-Jul-26 06:29N 50°48' W 001°07'0 0.0
2016-Jul-26 05:31N 50°48' W 001°07'0 0.0
2016-Jul-26 04:32N 50°48' W 001°07'0 0.0
2016-Jul-26 03:31N 50°48' W 001°07'0 0.0
2016-Jul-26 02:28N 50°48' W 001°07'0 0.0
2016-Jul-26 01:32N 50°48' W 001°07'0 0.0
2016-Jul-26 00:32N 50°48' W 001°07'0 0.0
2016-Jul-25 23:31N 50°48' W 001°07'0 0.0
2016-Jul-25 22:31N 50°48' W 001°07'0 0.0
2016-Jul-25 21:31N 50°48' W 001°07'0 0.0
2016-Jul-25 20:31N 50°48' W 001°07'0 0.0
2016-Jul-25 19:31N 50°48' W 001°07'0 0.0
2016-Jul-25 18:31N 50°48' W 001°07'0 0.0
2016-Jul-25 17:32N 50°48' W 001°07'0 0.0
2016-Jul-25 16:31N 50°48' W 001°07'0 0.0
2016-Jul-25 15:31N 50°48' W 001°07'0 0.0
2016-Jul-25 14:31N 50°48' W 001°07'0 0.0
2016-Jul-25 13:31N 50°48' W 001°07'0 0.0
2016-Jul-25 12:31N 50°48' W 001°07'0 0.0
2016-Jul-25 11:31N 50°48' W 001°07'0 0.0
2016-Jul-25 10:28N 50°48' W 001°07'0 0.0
2016-Jul-25 09:31N 50°48' W 001°07'0 0.0
2016-Jul-25 08:31N 50°48' W 001°07'0 0.0
2016-Jul-25 07:32N 50°48' W 001°07'0 0.0
2016-Jul-25 06:31N 50°48' W 001°07'0 0.0
2016-Jul-25 05:28N 50°48' W 001°07'0 0.0
2016-Jul-25 04:32N 50°48' W 001°07'0 0.0
2016-Jul-25 03:31N 50°48' W 001°07'0 0.0
2016-Jul-25 02:31N 50°48' W 001°07'0 0.0
2016-Jul-25 01:31N 50°48' W 001°07'0 0.0
2016-Jul-25 00:31N 50°48' W 001°07'0 0.0
2016-Jul-24 23:31N 50°48' W 001°07'0 0.0
2016-Jul-24 22:31N 50°48' W 001°07'0 0.0
2016-Jul-24 21:31N 50°48' W 001°07'0 0.0
2016-Jul-24 20:31N 50°48' W 001°07'0 0.0
2016-Jul-24 19:31N 50°48' W 001°07'0 0.0
2016-Jul-24 18:28N 50°48' W 001°07'4 4.0
2016-Jul-24 17:33N 50°45' W 001°05'8 7.9
2016-Jul-24 16:33N 50°40' W 000°55'1110.7
2016-Jul-24 15:32N 50°37' W 000°39'10 9.8
2016-Jul-24 14:33N 50°35' W 000°24'8 8.3
2016-Jul-24 13:33N 50°33' W 000°11'7 7.1
2016-Jul-24 12:33N 50°33' E 000°00'6 6.3
2016-Jul-24 11:33N 50°34' E 000°10'7 6.5
2016-Jul-24 10:27N 50°37' E 000°20'36 8.7
2016-Jul-24 06:20N 50°55' E 001°09'7 8.5
2016-Jul-24 05:32N 50°59' E 001°17'7 7.1
2016-Jul-24 04:32N 51°04' E 001°26'6 5.7
2016-Jul-24 03:33N 51°07' E 001°33'5 4.8
2016-Jul-24 02:33N 51°10' E 001°39'6 5.6
2016-Jul-24 01:33N 51°14' E 001°45'8 7.9
2016-Jul-24 00:33N 51°21' E 001°50'10 9.7
2016-Jul-23 23:33N 51°30' E 001°58'1110.8
2016-Jul-23 22:32N 51°38' E 002°10'1010.3
2016-Jul-23 21:33N 51°46' E 002°21'9 9.4
2016-Jul-23 20:33N 51°52' E 002°31'9 8.4
2016-Jul-23 19:30N 51°57' E 002°43'37 7.3
2016-Jul-23 14:31N 52°03' E 003°42'9 8.9
2016-Jul-23 13:33N 52°01' E 003°55'1010.0
2016-Jul-23 12:33N 51°57' E 004°10'9 9.2
2016-Jul-23 11:33N 51°54' E 004°24'7 7.4
2016-Jul-23 10:33N 51°54' E 004°36'8 8.0
2016-Jul-23 09:33N 51°49' E 004°47'4 3.8
2016-Jul-23 08:33N 51°49' E 004°53'0 0.0
2016-Jul-23 07:30N 51°49' E 004°53'0 0.0
2016-Jul-23 06:33N 51°49' E 004°53'0 0.0
2016-Jul-23 04:33N 51°49' E 004°53'0 0.0
2016-Jul-23 03:30N 51°49' E 004°53'0 0.0
2016-Jul-23 02:27N 51°49' E 004°53'0 0.0
2016-Jul-23 01:33N 51°49' E 004°53'0 0.0
2016-Jul-23 00:33N 51°49' E 004°53'0 0.0
2016-Jul-22 23:27N 51°49' E 004°53'0 0.0
2016-Jul-22 22:33N 51°49' E 004°53'0 0.0
2016-Jul-22 21:33N 51°49' E 004°53'0 0.0
2016-Jul-22 20:33N 51°49' E 004°53'0 0.0
2016-Jul-22 19:15N 51°49' E 004°53'0 0.0
2016-Jul-22 18:33N 51°49' E 004°53'0 0.0
2016-Jul-22 17:33N 51°49' E 004°53'0 0.0
2016-Jul-22 16:06N 51°49' E 004°53'0 0.0
2016-Jul-22 15:33N 51°49' E 004°53'0 0.0
2016-Jul-22 14:24N 51°49' E 004°53'0 0.0
2016-Jul-22 13:33N 51°49' E 004°53'0 0.0
2016-Jul-22 12:27N 51°49' E 004°53'0 0.0
2016-Jul-22 11:33N 51°49' E 004°53'0 0.0
2016-Jul-22 10:30N 51°49' E 004°53'0 0.0
2016-Jul-22 09:27N 51°49' E 004°53'0 0.0
2016-Jul-22 08:30N 51°49' E 004°53'0 0.0
2016-Jul-22 00:33N 51°49' E 004°53'0 0.0
2016-Jul-21 22:21N 51°49' E 004°53'0 0.0
2016-Jul-21 18:27N 51°49' E 004°53'  

Dump ship's entire track history